Time;durP1;ratioP1;P1;durP2;ratioP2;P2;SDS_P1;SDS_P2;PMS_P1;PMS_P2;Temp;Humidity;BMP_temperature;BMP_pressure;BME280_temperature;BME280_humidity;BME280_pressure;Samples;Min_cycle;Max_cycle;Signal;HPM_P1;HPM_P2
2024/01/28 00:01:17;;;;;;;7.03;4.75;;;2.50;99.90;;;;;;4991931;28;20429;-64
2024/01/28 00:03:44;;;;;;;8.20;5.22;;;2.50;99.90;;;;;;4996414;28;20874;-62
2024/01/28 00:06:11;;;;;;;6.03;4.85;;;2.50;99.90;;;;;;4993054;28;20417;-64
2024/01/28 00:08:39;;;;;;;6.65;4.20;;;2.50;99.90;;;;;;4991571;28;20426;-64
2024/01/28 00:11:05;;;;;;;9.23;4.70;;;2.50;99.90;;;;;;4992493;28;20452;-64
2024/01/28 00:13:34;;;;;;;6.45;5.20;;;2.50;99.90;;;;;;4996057;28;21235;-64
2024/01/28 00:16:01;;;;;;;7.18;4.63;;;2.50;99.90;;;;;;4993025;28;20421;-64
2024/01/28 00:18:27;;;;;;;8.80;4.33;;;2.50;99.90;;;;;;4995661;28;20445;-63
2024/01/28 00:20:54;;;;;;;9.15;4.10;;;2.50;99.90;;;;;;4998432;28;20491;-64
2024/01/28 00:23:21;;;;;;;7.78;4.40;;;2.50;99.90;;;;;;4991298;28;20509;-64
2024/01/28 00:25:49;;;;;;;7.68;4.10;;;2.40;99.90;;;;;;4990297;28;20904;-63
2024/01/28 00:28:16;;;;;;;8.10;4.60;;;2.40;99.90;;;;;;4990830;28;20486;-64
2024/01/28 00:30:42;;;;;;;7.43;4.85;;;2.40;99.90;;;;;;4993828;28;20730;-64
2024/01/28 00:33:10;;;;;;;7.07;4.10;;;2.40;99.90;;;;;;4993041;28;20437;-63
2024/01/28 00:35:37;;;;;;;9.30;4.65;;;2.40;99.90;;;;;;4995573;28;20428;-64
2024/01/28 00:38:04;;;;;;;7.85;4.45;;;2.30;99.90;;;;;;5001476;28;20503;-64
2024/01/28 00:40:31;;;;;;;9.98;4.40;;;2.30;99.90;;;;;;4997918;28;20485;-64
2024/01/28 00:42:59;;;;;;;6.78;4.55;;;2.30;99.90;;;;;;4994525;28;20437;-63
2024/01/28 00:45:26;;;;;;;8.53;4.30;;;2.30;99.90;;;;;;4999797;28;20416;-63
2024/01/28 00:47:53;;;;;;;9.23;4.68;;;2.20;99.90;;;;;;4993811;28;20437;-64
2024/01/28 00:50:20;;;;;;;5.60;4.20;;;2.20;99.90;;;;;;4989422;28;20419;-63
2024/01/28 00:52:47;;;;;;;9.25;4.80;;;2.20;99.90;;;;;;4992501;28;20434;-64
2024/01/28 00:55:14;;;;;;;8.05;5.05;;;2.20;99.90;;;;;;4990481;28;20422;-64
2024/01/28 00:57:41;;;;;;;6.88;4.03;;;2.20;99.90;;;;;;4992897;28;20430;-64
2024/01/28 01:00:10;;;;;;;8.60;4.77;;;2.20;99.90;;;;;;4994729;28;20455;-64
2024/01/28 01:02:37;;;;;;;7.73;3.87;;;2.20;99.90;;;;;;4989277;28;20502;-64
2024/01/28 01:05:04;;;;;;;6.40;3.80;;;2.20;99.90;;;;;;4995647;28;20413;-63
2024/01/28 01:07:31;;;;;;;7.70;4.40;;;2.20;99.90;;;;;;4992712;28;20426;-64
2024/01/28 01:09:58;;;;;;;8.98;4.15;;;2.20;99.90;;;;;;4993240;28;20748;-63
2024/01/28 01:12:25;;;;;;;4.63;3.60;;;2.20;99.90;;;;;;4990927;28;20951;-64
2024/01/28 01:14:51;;;;;;;11.13;4.35;;;2.30;99.90;;;;;;4995405;28;20426;-64
2024/01/28 01:17:19;;;;;;;5.30;3.65;;;2.30;99.90;;;;;;4987886;28;20426;-64
2024/01/28 01:19:46;;;;;;;7.60;4.60;;;2.30;99.90;;;;;;4988895;28;20443;-64
2024/01/28 01:22:14;;;;;;;6.90;4.03;;;2.30;99.90;;;;;;4997867;28;20418;-64
2024/01/28 01:24:40;;;;;;;7.17;4.63;;;2.20;99.90;;;;;;4989333;28;20883;-64
2024/01/28 01:27:07;;;;;;;8.35;4.60;;;2.20;99.90;;;;;;4991505;28;20772;-63
2024/01/28 01:29:34;;;;;;;7.97;4.10;;;2.10;99.90;;;;;;4997009;28;20429;-64
2024/01/28 01:32:01;;;;;;;6.97;3.75;;;2.20;99.90;;;;;;4999986;28;20432;-64
2024/01/28 01:34:29;;;;;;;6.43;3.95;;;2.20;99.90;;;;;;4996951;28;20438;-64
2024/01/28 01:36:56;;;;;;;6.75;3.78;;;2.10;99.90;;;;;;4994831;28;20421;-64
2024/01/28 01:39:22;;;;;;;7.63;4.28;;;2.10;99.90;;;;;;4996079;28;20421;-64
2024/01/28 01:41:49;;;;;;;6.07;3.80;;;2.10;99.90;;;;;;4991772;28;20422;-63
2024/01/28 01:44:16;;;;;;;8.27;4.28;;;2.10;99.90;;;;;;4999047;28;20433;-64
2024/01/28 01:46:45;;;;;;;6.40;3.67;;;2.10;99.90;;;;;;5004445;28;20452;-68
2024/01/28 01:49:12;;;;;;;7.85;3.88;;;2.10;99.90;;;;;;4997864;28;20418;-64
2024/01/28 01:51:40;;;;;;;6.93;4.05;;;2.10;99.90;;;;;;5001666;28;20416;-63
2024/01/28 01:54:09;;;;;;;6.88;4.07;;;2.10;99.90;;;;;;5013014;28;20492;-64
2024/01/28 01:56:36;;;;;;;8.15;4.13;;;2.10;99.90;;;;;;4998556;28;20446;-64
2024/01/28 01:59:04;;;;;;;7.43;3.80;;;2.10;99.90;;;;;;4993175;28;20912;-63
2024/01/28 02:01:32;;;;;;;11.20;4.35;;;2.10;99.90;;;;;;5005928;28;20414;-64
2024/01/28 02:03:58;;;;;;;7.70;3.80;;;2.10;99.90;;;;;;5001323;28;20431;-64
2024/01/28 02:06:26;;;;;;;8.07;4.20;;;2.10;99.90;;;;;;5011589;28;20418;-64
2024/01/28 02:08:54;;;;;;;8.45;3.80;;;2.10;99.90;;;;;;5009555;28;20886;-64
2024/01/28 02:11:22;;;;;;;8.27;3.75;;;2.00;99.90;;;;;;5002466;28;20416;-64
2024/01/28 02:13:48;;;;;;;7.57;4.20;;;2.00;99.90;;;;;;5003889;28;20795;-64
2024/01/28 02:16:15;;;;;;;7.60;4.00;;;2.00;99.90;;;;;;5004459;28;20903;-64
2024/01/28 02:18:42;;;;;;;5.88;3.60;;;2.10;99.90;;;;;;4992031;28;20427;-64
2024/01/28 02:21:09;;;;;;;6.03;3.85;;;2.00;99.90;;;;;;4993175;28;20484;-64
2024/01/28 02:23:37;;;;;;;8.20;3.70;;;2.10;99.90;;;;;;4994735;28;20826;-64
2024/01/28 02:26:04;;;;;;;5.85;3.50;;;2.10;99.90;;;;;;4992962;28;20417;-63
2024/01/28 02:28:31;;;;;;;7.25;3.65;;;2.10;99.90;;;;;;4992026;28;20830;-63
2024/01/28 02:30:58;;;;;;;7.57;4.10;;;2.00;99.90;;;;;;5000091;28;20503;-64
2024/01/28 02:33:25;;;;;;;5.93;3.78;;;2.00;99.90;;;;;;4993318;28;21328;-64
2024/01/28 02:35:52;;;;;;;6.78;4.30;;;2.00;99.90;;;;;;4997062;28;20859;-64
2024/01/28 02:38:18;;;;;;;8.88;4.10;;;2.00;99.90;;;;;;4990619;28;20449;-64
2024/01/28 02:40:46;;;;;;;6.25;4.00;;;2.00;99.90;;;;;;4987449;28;20419;-64
2024/01/28 02:43:13;;;;;;;5.90;3.50;;;2.00;99.90;;;;;;4993687;28;20417;-64
2024/01/28 02:45:40;;;;;;;6.82;3.58;;;2.00;99.90;;;;;;4990501;28;20460;-64
2024/01/28 02:48:07;;;;;;;6.40;4.05;;;2.00;99.90;;;;;;4996934;28;20753;-64
2024/01/28 02:50:34;;;;;;;6.45;4.28;;;2.00;99.90;;;;;;4987881;28;20510;-64
2024/01/28 02:53:01;;;;;;;8.13;3.70;;;2.00;99.90;;;;;;4994888;28;20639;-64
2024/01/28 02:55:27;;;;;;;5.13;3.10;;;2.00;99.90;;;;;;4992665;28;20433;-64
2024/01/28 02:57:55;;;;;;;7.55;3.90;;;2.00;99.90;;;;;;4985729;28;20415;-64
2024/01/28 03:00:22;;;;;;;5.50;3.50;;;2.00;99.90;;;;;;4988168;28;20421;-63
2024/01/28 03:02:49;;;;;;;7.40;3.67;;;2.00;99.90;;;;;;4989325;28;20863;-64
2024/01/28 03:05:16;;;;;;;6.20;3.65;;;2.00;99.90;;;;;;4985736;28;20419;-64
2024/01/28 03:07:42;;;;;;;7.83;4.43;;;2.00;99.90;;;;;;4989967;28;20418;-64
2024/01/28 03:10:09;;;;;;;12.27;4.50;;;2.00;99.90;;;;;;4987902;28;20422;-64
2024/01/28 03:12:36;;;;;;;8.25;3.83;;;2.00;99.90;;;;;;4994899;28;20501;-63
2024/01/28 03:15:05;;;;;;;7.13;3.40;;;1.90;99.90;;;;;;4991732;28;20438;-64
2024/01/28 03:17:32;;;;;;;6.18;3.80;;;1.90;99.90;;;;;;4994325;28;20468;-64
2024/01/28 03:19:59;;;;;;;7.05;3.90;;;1.90;99.90;;;;;;4989462;28;20437;-64
2024/01/28 03:22:26;;;;;;;7.88;3.75;;;1.90;99.90;;;;;;4989948;28;20422;-64
2024/01/28 03:24:52;;;;;;;6.25;4.07;;;1.90;99.90;;;;;;4985163;28;20413;-64
2024/01/28 03:27:19;;;;;;;9.30;4.32;;;1.90;99.90;;;;;;4989347;28;20436;-64
2024/01/28 03:29:46;;;;;;;6.78;3.70;;;1.90;99.90;;;;;;4985763;28;20418;-63
2024/01/28 03:32:14;;;;;;;10.60;3.90;;;1.90;99.90;;;;;;4989000;28;20791;-64
2024/01/28 03:34:40;;;;;;;6.85;3.80;;;1.90;99.90;;;;;;4989352;28;20510;-64
2024/01/28 03:37:07;;;;;;;6.78;3.90;;;1.90;99.90;;;;;;4990310;28;20429;-64
2024/01/28 03:39:34;;;;;;;6.10;4.20;;;1.80;99.90;;;;;;4992296;28;20520;-64
2024/01/28 03:42:01;;;;;;;5.65;3.60;;;1.80;99.90;;;;;;5004569;28;20446;-63
2024/01/28 03:44:27;;;;;;;5.57;3.60;;;1.90;99.90;;;;;;5005882;28;20492;-64
2024/01/28 03:46:55;;;;;;;6.38;3.30;;;1.90;99.90;;;;;;5011046;28;20411;-63
2024/01/28 03:49:23;;;;;;;7.93;3.80;;;1.90;99.90;;;;;;5009517;28;20507;-64
2024/01/28 03:51:50;;;;;;;7.70;4.10;;;1.90;99.90;;;;;;5016455;28;20412;-63
2024/01/28 03:54:16;;;;;;;7.00;3.25;;;1.90;99.90;;;;;;5004233;28;20453;-64
2024/01/28 03:56:43;;;;;;;8.30;3.65;;;1.80;99.90;;;;;;5002162;28;20441;-64
2024/01/28 03:59:10;;;;;;;6.25;3.00;;;1.80;99.90;;;;;;5016128;28;20514;-63
2024/01/28 04:01:37;;;;;;;7.97;3.63;;;1.80;99.90;;;;;;5009695;28;20889;-63
2024/01/28 04:04:04;;;;;;;5.43;3.40;;;1.80;99.90;;;;;;5015115;28;20490;-64
2024/01/28 04:06:33;;;;;;;6.07;3.28;;;1.80;99.90;;;;;;4998596;28;20525;-63
2024/01/28 04:09:00;;;;;;;5.70;3.00;;;1.80;99.90;;;;;;4993320;28;20447;-64
2024/01/28 04:11:27;;;;;;;7.40;3.40;;;1.80;99.90;;;;;;4985339;28;20436;-64
2024/01/28 04:13:55;;;;;;;5.60;3.50;;;1.90;99.90;;;;;;4985496;28;20900;-65
2024/01/28 04:16:22;;;;;;;8.20;3.40;;;1.90;99.90;;;;;;4984685;28;21189;-63
2024/01/28 04:18:50;;;;;;;5.88;3.33;;;1.90;99.90;;;;;;4988833;28;20420;-63
2024/01/28 04:21:17;;;;;;;5.93;3.38;;;1.80;99.90;;;;;;4989260;28;20422;-64
2024/01/28 04:23:46;;;;;;;4.75;2.85;;;1.80;99.90;;;;;;4988868;28;20441;-64
2024/01/28 04:26:13;;;;;;;6.00;2.85;;;1.80;99.90;;;;;;5002723;28;20937;-63
2024/01/28 04:28:41;;;;;;;8.13;3.70;;;1.80;99.90;;;;;;4989269;28;20853;-64
2024/01/28 04:31:08;;;;;;;5.00;2.90;;;1.80;99.90;;;;;;4986940;28;20465;-64
2024/01/28 04:33:34;;;;;;;5.43;2.80;;;1.80;99.90;;;;;;4984105;28;20756;-64
2024/01/28 04:36:01;;;;;;;6.80;3.20;;;1.80;99.90;;;;;;4984238;28;20426;-67
2024/01/28 04:38:28;;;;;;;6.25;2.90;;;1.80;99.90;;;;;;4987425;28;20411;-63
2024/01/28 04:40:56;;;;;;;7.20;3.33;;;1.80;99.90;;;;;;4988980;28;20441;-64
2024/01/28 04:43:23;;;;;;;4.65;2.90;;;1.80;99.90;;;;;;4991257;28;20428;-64
2024/01/28 04:45:50;;;;;;;6.68;3.53;;;1.80;99.90;;;;;;4984179;28;20425;-64
2024/01/28 04:48:18;;;;;;;5.85;3.00;;;1.70;99.90;;;;;;4994818;28;20878;-64
2024/01/28 04:50:45;;;;;;;5.32;3.00;;;1.70;99.90;;;;;;4995624;28;20430;-64
2024/01/28 04:53:12;;;;;;;7.53;3.33;;;1.70;99.90;;;;;;4994514;28;21033;-62
2024/01/28 04:55:38;;;;;;;4.55;2.70;;;1.70;99.90;;;;;;4992552;28;20430;-64
2024/01/28 04:58:07;;;;;;;4.70;2.42;;;1.70;99.90;;;;;;4988486;28;20445;-64
2024/01/28 05:00:33;;;;;;;4.93;2.63;;;1.70;99.90;;;;;;4989310;28;20788;-62
2024/01/28 05:03:01;;;;;;;4.13;2.70;;;1.70;99.90;;;;;;4997690;28;20528;-63
2024/01/28 05:05:27;;;;;;;5.93;2.83;;;1.70;99.90;;;;;;4988288;28;20452;-63
2024/01/28 05:07:54;;;;;;;5.33;3.00;;;1.70;99.90;;;;;;4991530;28;20872;-64
2024/01/28 05:10:21;;;;;;;5.50;2.80;;;1.60;99.90;;;;;;4989620;28;20422;-64
2024/01/28 05:12:48;;;;;;;4.93;2.80;;;1.70;99.90;;;;;;4997691;28;20434;-64
2024/01/28 05:15:17;;;;;;;5.05;2.88;;;1.60;99.90;;;;;;4990993;28;20445;-64
2024/01/28 05:17:44;;;;;;;4.68;3.10;;;1.60;99.90;;;;;;4994493;28;20419;-64
2024/01/28 05:20:12;;;;;;;4.70;2.80;;;1.60;99.90;;;;;;4994042;28;20487;-63
2024/01/28 05:22:39;;;;;;;6.63;2.90;;;1.70;99.90;;;;;;4997923;28;20517;-63
2024/01/28 05:25:06;;;;;;;5.68;2.88;;;1.70;99.90;;;;;;4996953;28;20428;-63
2024/01/28 05:27:33;;;;;;;5.68;2.85;;;1.70;99.90;;;;;;4995627;28;20900;-63
2024/01/28 05:30:00;;;;;;;4.72;3.00;;;1.70;99.90;;;;;;4996611;28;20425;-64
2024/01/28 05:32:28;;;;;;;4.75;3.15;;;1.70;99.90;;;;;;4991572;28;20448;-63
2024/01/28 05:34:56;;;;;;;6.90;3.10;;;1.80;99.90;;;;;;5000305;28;20449;-63
2024/01/28 05:37:23;;;;;;;5.82;3.30;;;1.80;99.90;;;;;;5000140;28;20426;-63
2024/01/28 05:39:49;;;;;;;4.65;3.00;;;1.80;99.90;;;;;;4992476;28;20438;-63
2024/01/28 05:42:16;;;;;;;7.13;2.70;;;1.80;99.90;;;;;;4996274;28;20417;-63
2024/01/28 05:44:43;;;;;;;6.18;2.67;;;1.80;99.90;;;;;;4992490;28;20725;-62
2024/01/28 05:47:10;;;;;;;4.90;2.70;;;1.90;99.90;;;;;;4995670;28;20492;-63
2024/01/28 05:49:38;;;;;;;5.10;2.70;;;1.90;99.90;;;;;;4994950;28;20441;-63
2024/01/28 05:52:06;;;;;;;3.75;2.78;;;1.90;99.90;;;;;;4993188;28;20420;-63
2024/01/28 05:54:33;;;;;;;5.38;2.80;;;1.90;99.90;;;;;;4988797;28;20446;-63
2024/01/28 05:57:00;;;;;;;6.30;3.17;;;1.90;99.90;;;;;;4995091;28;20422;-63
2024/01/28 05:59:26;;;;;;;7.88;3.95;;;1.90;99.90;;;;;;4993868;28;20873;-63
2024/01/28 06:01:54;;;;;;;5.43;3.20;;;1.80;99.90;;;;;;4995138;28;20429;-63
2024/01/28 06:04:21;;;;;;;5.60;3.03;;;1.80;99.90;;;;;;4993568;28;20414;-63
2024/01/28 06:06:49;;;;;;;5.30;3.00;;;1.70;99.90;;;;;;4995887;28;20876;-63
2024/01/28 06:09:16;;;;;;;6.95;4.00;;;1.70;99.90;;;;;;4996705;28;20413;-63
2024/01/28 06:11:43;;;;;;;8.02;3.80;;;1.70;99.90;;;;;;4992378;28;20502;-62
2024/01/28 06:14:11;;;;;;;5.18;2.95;;;1.70;99.90;;;;;;4990200;28;20537;-63
2024/01/28 06:16:38;;;;;;;5.50;3.60;;;1.70;99.90;;;;;;4987099;28;20497;-63
2024/01/28 06:19:04;;;;;;;5.63;3.53;;;1.70;99.90;;;;;;4985849;28;20434;-63
2024/01/28 06:21:31;;;;;;;6.47;4.00;;;1.70;99.90;;;;;;4989469;28;20426;-63
2024/01/28 06:23:59;;;;;;;4.18;3.38;;;1.70;99.90;;;;;;4992638;28;20420;-63
2024/01/28 06:26:26;;;;;;;5.50;3.20;;;1.70;99.90;;;;;;4998324;28;20903;-63
2024/01/28 06:28:53;;;;;;;5.38;3.30;;;1.70;99.90;;;;;;4986341;28;20561;-63
2024/01/28 06:31:20;;;;;;;5.57;3.33;;;1.70;99.90;;;;;;4987224;28;20425;-63
2024/01/28 06:33:47;;;;;;;7.90;4.00;;;1.70;99.90;;;;;;4995528;28;20513;-62
2024/01/28 06:36:21;;;;;;;5.15;3.25;;;1.70;99.90;;;;;;4985623;28;20434;-63
2024/01/28 06:38:47;;;;;;;6.30;3.37;;;1.70;99.90;;;;;;4992151;28;20533;-62
2024/01/28 06:41:16;;;;;;;6.35;3.40;;;1.70;99.90;;;;;;4989872;28;20454;-63
2024/01/28 06:43:43;;;;;;;4.97;3.38;;;1.70;99.90;;;;;;4993132;28;20693;-63
2024/01/28 06:46:11;;;;;;;5.00;3.20;;;1.70;99.90;;;;;;4990838;28;20437;-63
2024/01/28 06:48:38;;;;;;;6.47;3.50;;;1.70;99.90;;;;;;4988129;28;20441;-63
2024/01/28 06:51:05;;;;;;;6.30;3.17;;;1.70;99.90;;;;;;4991393;28;20422;-63
2024/01/28 06:53:32;;;;;;;7.20;3.10;;;1.70;99.90;;;;;;4985370;28;20414;-63
2024/01/28 06:55:59;;;;;;;5.45;3.20;;;1.70;99.90;;;;;;4986948;28;20931;-63
2024/01/28 06:58:27;;;;;;;7.45;3.13;;;1.70;99.90;;;;;;4986721;28;20414;-63
2024/01/28 07:00:54;;;;;;;5.85;3.10;;;1.80;99.90;;;;;;4996409;28;20416;-63
2024/01/28 07:03:21;;;;;;;7.28;3.70;;;1.70;99.90;;;;;;5002870;28;20412;-64
2024/01/28 07:05:48;;;;;;;5.82;3.20;;;1.70;99.90;;;;;;4987543;28;20784;-63
2024/01/28 07:08:15;;;;;;;6.85;3.20;;;1.70;99.90;;;;;;5000849;28;20427;-63
2024/01/28 07:10:42;;;;;;;5.85;3.50;;;1.70;99.90;;;;;;4989748;28;20422;-62
2024/01/28 07:13:08;;;;;;;5.80;3.00;;;1.70;99.90;;;;;;4989694;28;20426;-64
2024/01/28 07:15:37;;;;;;;5.60;3.20;;;1.70;99.90;;;;;;4990045;28;20430;-63
2024/01/28 07:18:04;;;;;;;5.28;3.10;;;1.70;99.90;;;;;;4986423;28;20518;-63
2024/01/28 07:20:31;;;;;;;4.97;3.10;;;1.70;99.90;;;;;;4990343;28;20444;-63
2024/01/28 07:22:58;;;;;;;5.53;2.70;;;1.70;99.90;;;;;;4990197;28;20433;-63
2024/01/28 07:25:25;;;;;;;6.50;3.40;;;1.70;99.90;;;;;;4987418;28;20449;-63
2024/01/28 07:27:52;;;;;;;5.18;3.30;;;1.70;99.90;;;;;;4998440;28;20429;-63
2024/01/28 07:30:18;;;;;;;5.20;3.00;;;1.70;99.90;;;;;;5000264;28;20493;-63
2024/01/28 07:32:47;;;;;;;5.43;2.85;;;1.70;99.90;;;;;;5005592;28;20741;-68
2024/01/28 07:35:15;;;;;;;5.50;3.10;;;1.70;99.90;;;;;;5006602;28;20892;-63
2024/01/28 07:37:42;;;;;;;4.25;3.08;;;1.70;99.90;;;;;;4999997;28;20734;-63
2024/01/28 07:40:10;;;;;;;4.80;3.20;;;1.70;99.90;;;;;;5003795;28;20873;-64
2024/01/28 07:42:37;;;;;;;6.00;3.40;;;1.70;99.90;;;;;;4997327;28;20411;-63
2024/01/28 07:45:04;;;;;;;6.00;2.85;;;1.70;99.90;;;;;;5001522;28;20414;-63
2024/01/28 07:47:31;;;;;;;5.65;3.10;;;1.70;99.90;;;;;;5007795;28;20474;-62
2024/01/28 07:49:59;;;;;;;5.40;3.28;;;1.80;99.90;;;;;;5002690;28;20512;-63
2024/01/28 07:52:26;;;;;;;4.78;3.50;;;1.80;99.90;;;;;;5006680;28;20416;-63
2024/01/28 07:54:53;;;;;;;6.70;3.00;;;1.80;99.90;;;;;;5001781;28;20457;-62
2024/01/28 07:57:20;;;;;;;5.70;3.10;;;1.90;99.90;;;;;;5000536;28;20449;-63
2024/01/28 07:59:47;;;;;;;4.15;3.10;;;1.90;99.90;;;;;;4997951;28;20901;-62
2024/01/28 08:02:13;;;;;;;4.93;2.92;;;1.90;99.90;;;;;;4990576;28;20612;-63
2024/01/28 08:04:40;;;;;;;7.70;3.00;;;2.00;99.90;;;;;;4987046;28;20441;-63
2024/01/28 08:07:08;;;;;;;6.55;2.88;;;2.00;99.90;;;;;;4989091;28;20492;-63
2024/01/28 08:09:36;;;;;;;5.28;3.10;;;2.10;99.90;;;;;;4995337;28;20435;-63
2024/01/28 08:12:04;;;;;;;3.93;2.53;;;2.10;99.90;;;;;;4987518;28;20888;-63
2024/01/28 08:14:31;;;;;;;4.73;2.60;;;2.20;99.90;;;;;;4997159;28;20453;-62
2024/01/28 08:16:57;;;;;;;6.60;3.10;;;2.40;99.90;;;;;;4995529;28;20432;-63
2024/01/28 08:19:24;;;;;;;3.80;2.90;;;2.50;99.90;;;;;;4997714;28;20434;-62
2024/01/28 08:21:51;;;;;;;4.38;2.67;;;2.60;99.90;;;;;;5001413;28;20416;-62
2024/01/28 08:24:19;;;;;;;6.10;3.20;;;2.70;99.90;;;;;;4994452;28;20426;-64
2024/01/28 08:26:46;;;;;;;3.60;2.50;;;2.80;99.90;;;;;;4990133;28;20437;-63
2024/01/28 08:29:12;;;;;;;4.70;2.30;;;3.00;99.90;;;;;;4991000;28;20955;-62
2024/01/28 08:31:39;;;;;;;5.10;2.80;;;3.10;99.90;;;;;;4999207;28;20414;-63
2024/01/28 08:34:06;;;;;;;3.83;2.30;;;3.20;99.90;;;;;;5002107;28;20430;-63
2024/01/28 08:36:33;;;;;;;4.28;2.40;;;3.40;99.90;;;;;;4994403;28;20592;-63
2024/01/28 08:39:00;;;;;;;4.60;2.60;;;3.50;99.90;;;;;;4990869;28;20425;-62
2024/01/28 08:41:28;;;;;;;5.47;2.80;;;3.60;99.90;;;;;;4992519;28;20454;-63
2024/01/28 08:43:55;;;;;;;5.72;2.80;;;3.70;99.90;;;;;;4991361;28;20417;-63
2024/01/28 08:46:21;;;;;;;6.30;3.00;;;3.80;99.90;;;;;;4993822;28;20421;-65
2024/01/28 08:48:48;;;;;;;4.67;2.77;;;3.90;99.90;;;;;;4993928;28;20496;-63
2024/01/28 08:51:15;;;;;;;5.40;2.60;;;4.00;99.90;;;;;;4995436;28;20432;-63
2024/01/28 08:53:43;;;;;;;5.03;2.53;;;4.00;99.90;;;;;;4989938;28;20510;-63
2024/01/28 08:56:09;;;;;;;4.70;2.60;;;4.10;99.90;;;;;;4992064;28;20947;-63
2024/01/28 08:58:37;;;;;;;4.50;3.40;;;4.20;99.90;;;;;;4991789;28;20414;-63
2024/01/28 09:01:05;;;;;;;5.85;2.88;;;4.30;99.90;;;;;;4997741;28;20422;-63
2024/01/28 09:03:32;;;;;;;4.95;2.92;;;4.40;99.90;;;;;;4990661;28;20427;-63
2024/01/28 09:06:00;;;;;;;3.85;2.60;;;4.50;99.90;;;;;;4988999;28;20434;-63
2024/01/28 09:08:30;;;;;;;4.53;2.40;;;4.70;99.90;;;;;;4997125;28;20925;-62
2024/01/28 09:10:56;;;;;;;5.13;2.45;;;4.80;99.90;;;;;;4998127;28;20487;-62
2024/01/28 09:13:24;;;;;;;5.28;2.40;;;4.90;99.90;;;;;;4992970;28;20860;-63
2024/01/28 09:15:53;;;;;;;3.55;2.40;;;4.90;99.90;;;;;;4989813;28;20504;-63
2024/01/28 09:18:20;;;;;;;5.63;2.70;;;5.00;99.90;;;;;;4994438;28;20418;-62
2024/01/28 09:20:46;;;;;;;5.13;2.60;;;5.10;99.90;;;;;;4993205;28;20487;-63
2024/01/28 09:23:13;;;;;;;4.43;2.88;;;5.20;99.90;;;;;;4992026;28;20433;-62
2024/01/28 09:25:40;;;;;;;4.22;2.60;;;5.40;98.70;;;;;;4992298;28;20497;-62
2024/01/28 09:28:07;;;;;;;4.75;2.33;;;5.40;98.70;;;;;;4985922;28;20418;-63
2024/01/28 09:30:34;;;;;;;5.20;2.83;;;5.60;98.40;;;;;;4987986;28;20480;-62
2024/01/28 09:33:03;;;;;;;2.92;2.47;;;5.70;98.20;;;;;;4991335;28;20461;-63
2024/01/28 09:35:30;;;;;;;4.53;2.58;;;5.90;96.90;;;;;;4996856;28;20832;-63
2024/01/28 09:37:57;;;;;;;4.60;2.75;;;6.00;96.00;;;;;;4989627;28;20418;-62
2024/01/28 09:40:24;;;;;;;4.45;2.40;;;6.00;95.30;;;;;;4991346;28;20424;-63
2024/01/28 09:42:59;;;;;;;3.70;2.30;;;6.20;94.70;;;;;;4986553;28;20441;-62
2024/01/28 09:45:27;;;;;;;4.80;2.30;;;6.30;94.00;;;;;;4993417;28;20909;-63
2024/01/28 09:47:55;;;;;;;4.82;2.40;;;6.30;93.20;;;;;;4997649;28;20418;-63
2024/01/28 09:50:23;;;;;;;2.80;2.20;;;6.40;92.40;;;;;;4990498;28;20422;-63
2024/01/28 09:52:50;;;;;;;4.93;2.80;;;6.40;92.50;;;;;;4990168;28;20445;-63
2024/01/28 09:55:17;;;;;;;6.82;2.65;;;6.50;92.80;;;;;;4994415;28;20431;-63
2024/01/28 09:57:44;;;;;;;3.75;2.40;;;6.60;91.50;;;;;;4990951;28;20439;-63
2024/01/28 10:00:13;;;;;;;4.40;2.80;;;6.80;91.50;;;;;;4995981;28;20427;-63
2024/01/28 10:02:40;;;;;;;4.20;2.58;;;6.90;89.00;;;;;;4992938;28;20414;-64
2024/01/28 10:05:10;;;;;;;4.60;2.60;;;7.00;90.30;;;;;;4993910;28;20434;-63
2024/01/28 10:07:43;;;;;;;4.53;2.35;;;7.10;88.00;;;;;;4992461;28;20923;-63
2024/01/28 10:10:12;;;;;;;5.13;2.60;;;7.20;86.00;;;;;;4998778;28;20499;-63
2024/01/28 10:12:38;;;;;;;2.70;2.30;;;7.20;81.90;;;;;;4995539;28;20440;-63
2024/01/28 10:15:15;;;;;;;3.63;2.50;;;7.30;83.50;;;;;;4990085;28;20428;-63
2024/01/28 10:17:46;;;;;;;4.45;3.00;;;7.40;83.20;;;;;;4994891;28;21257;-63
2024/01/28 10:20:13;;;;;;;3.80;2.50;;;7.40;80.90;;;;;;4992532;28;20426;-63
2024/01/28 10:22:42;;;;;;;4.53;2.63;;;7.40;82.70;;;;;;4989213;28;20437;-63
2024/01/28 10:25:12;;;;;;;5.53;3.08;;;7.50;83.60;;;;;;4987393;28;20857;-62
2024/01/28 10:27:39;;;;;;;5.43;3.20;;;7.50;83.30;;;;;;4988787;28;20492;-63
2024/01/28 10:30:07;;;;;;;5.97;2.67;;;7.70;82.80;;;;;;4994209;28;20422;-63
2024/01/28 10:32:34;;;;;;;5.47;2.70;;;7.90;77.90;;;;;;4994746;28;20547;-63
2024/01/28 10:35:00;;;;;;;4.70;2.65;;;8.00;77.20;;;;;;4996851;28;20444;-63
2024/01/28 10:37:28;;;;;;;4.68;2.70;;;8.10;77.10;;;;;;4986135;28;20434;-62
2024/01/28 10:39:58;;;;;;;5.63;3.65;;;8.10;75.50;;;;;;4996170;28;20424;-64
2024/01/28 10:42:27;;;;;;;7.88;4.97;;;8.20;74.40;;;;;;4989229;28;20422;-64
2024/01/28 10:44:56;;;;;;;4.30;3.70;;;8.30;74.10;;;;;;4990027;28;20414;-62
2024/01/28 10:47:26;;;;;;;4.28;3.10;;;8.40;72.10;;;;;;4987622;28;20502;-62
2024/01/28 10:49:59;;;;;;;6.30;4.60;;;8.40;70.80;;;;;;4989936;28;20425;-63
2024/01/28 10:52:26;;;;;;;4.67;3.47;;;8.50;73.70;;;;;;4988569;28;20489;-62
2024/01/28 10:54:54;;;;;;;6.05;2.88;;;8.60;73.30;;;;;;4997949;28;20416;-62
2024/01/28 10:57:25;;;;;;;5.65;3.05;;;8.80;70.50;;;;;;4987039;28;20457;-62
2024/01/28 10:59:54;;;;;;;4.72;3.10;;;8.90;68.80;;;;;;4989033;28;20956;-65
2024/01/28 11:02:21;;;;;;;4.57;2.60;;;9.00;68.90;;;;;;4985264;28;20429;-64
2024/01/28 11:04:49;;;;;;;4.00;3.15;;;9.00;67.30;;;;;;4989953;28;20412;-62
2024/01/28 11:07:19;;;;;;;5.17;3.30;;;9.20;68.30;;;;;;4995101;28;20524;-62
2024/01/28 11:09:45;;;;;;;4.85;3.00;;;9.30;67.90;;;;;;4987492;28;20422;-64
2024/01/28 11:12:13;;;;;;;4.20;2.90;;;9.30;67.50;;;;;;4987477;28;20437;-64
2024/01/28 11:14:41;;;;;;;6.15;2.92;;;9.30;66.80;;;;;;4988549;28;20425;-62
2024/01/28 11:17:11;;;;;;;4.60;3.20;;;9.40;66.30;;;;;;4994128;28;20457;-63
2024/01/28 11:19:38;;;;;;;5.97;3.20;;;9.40;67.00;;;;;;4988226;28;20785;-64
2024/01/28 11:22:05;;;;;;;5.80;3.00;;;9.50;66.40;;;;;;4993755;28;20415;-63
2024/01/28 11:24:49;;;;;;;5.35;3.03;;;9.40;66.20;;;;;;4989800;28;20423;-66
2024/01/28 11:27:16;;;;;;;5.22;3.53;;;9.50;67.50;;;;;;4995740;28;20499;-66
2024/01/28 11:29:45;;;;;;;5.05;3.22;;;9.60;68.00;;;;;;4991759;28;20422;-66
2024/01/28 11:32:13;;;;;;;4.60;2.80;;;9.60;66.30;;;;;;4988879;28;20783;-66
2024/01/28 11:34:43;;;;;;;5.10;2.97;;;9.70;66.20;;;;;;4993900;28;20794;-66
2024/01/28 11:37:13;;;;;;;5.38;2.80;;;9.70;65.30;;;;;;4997348;28;20449;-66
2024/01/28 11:39:45;;;;;;;5.18;2.60;;;9.70;65.30;;;;;;4986491;28;20889;-64
2024/01/28 11:42:13;;;;;;;4.75;3.00;;;9.60;64.90;;;;;;4986610;28;20426;-62
2024/01/28 11:44:41;;;;;;;3.13;2.60;;;9.70;65.40;;;;;;4993960;28;20448;-62
2024/01/28 11:47:12;;;;;;;4.30;2.90;;;9.90;65.20;;;;;;4991890;28;20788;-63
2024/01/28 11:49:39;;;;;;;5.00;3.17;;;10.00;64.20;;;;;;4992965;28;20426;-62
2024/01/28 11:52:08;;;;;;;3.30;2.60;;;10.10;63.50;;;;;;4989238;28;20446;-61
2024/01/28 11:54:36;;;;;;;5.50;3.13;;;10.10;63.70;;;;;;4986994;28;20457;-62
2024/01/28 11:57:03;;;;;;;3.63;2.80;;;10.30;63.80;;;;;;4987789;28;20540;-62
2024/01/28 11:59:33;;;;;;;5.03;2.95;;;10.60;62.10;;;;;;4987480;28;20534;-63
2024/01/28 12:02:00;;;;;;;4.53;3.00;;;10.90;61.40;;;;;;4986761;28;20417;-63
2024/01/28 12:04:28;;;;;;;3.90;2.95;;;11.20;60.60;;;;;;4992252;28;20876;-63
2024/01/28 12:06:55;;;;;;;3.50;2.55;;;11.60;59.40;;;;;;4984268;28;20887;-63
2024/01/28 12:09:22;;;;;;;3.55;2.60;;;12.00;57.70;;;;;;4991599;28;20466;-63
2024/01/28 12:11:48;;;;;;;3.67;2.60;;;12.50;56.50;;;;;;4984428;28;20904;-63
2024/01/28 12:14:15;;;;;;;5.30;2.78;;;12.70;55.70;;;;;;4984511;28;20425;-62
2024/01/28 12:16:43;;;;;;;3.28;2.40;;;13.20;55.50;;;;;;4988051;28;20431;-63
2024/01/28 12:19:12;;;;;;;4.97;3.08;;;14.20;53.80;;;;;;4983477;28;20411;-63
2024/01/28 12:21:41;;;;;;;4.30;2.83;;;15.20;51.80;;;;;;4990118;28;20418;-62
2024/01/28 12:24:10;;;;;;;4.68;3.10;;;16.30;49.30;;;;;;4982926;28;20418;-62
2024/01/28 12:26:37;;;;;;;4.43;2.80;;;17.10;47.30;;;;;;4988786;28;20513;-62
2024/01/28 12:29:04;;;;;;;3.85;2.83;;;17.80;45.30;;;;;;4983808;28;20422;-63
2024/01/28 12:31:31;;;;;;;5.60;2.70;;;17.70;43.30;;;;;;4990518;28;20422;-63
2024/01/28 12:33:58;;;;;;;4.32;2.83;;;17.90;43.20;;;;;;4994354;28;20749;-62
2024/01/28 12:36:24;;;;;;;4.88;2.50;;;17.80;42.10;;;;;;4988413;28;20443;-62
2024/01/28 12:38:53;;;;;;;3.25;2.28;;;17.00;42.30;;;;;;4981897;28;20422;-62
2024/01/28 12:41:20;;;;;;;4.30;2.50;;;16.20;43.40;;;;;;4991041;28;20505;-62
2024/01/28 12:43:48;;;;;;;3.75;2.72;;;15.70;44.70;;;;;;4983344;28;20423;-63
2024/01/28 12:46:16;;;;;;;4.28;2.63;;;15.30;45.20;;;;;;4989605;28;20427;-63
2024/01/28 12:48:42;;;;;;;4.22;2.70;;;15.00;45.50;;;;;;4989915;28;20500;-62
2024/01/28 12:51:09;;;;;;;4.28;2.70;;;14.70;46.30;;;;;;4987451;28;20780;-61
2024/01/28 12:53:36;;;;;;;5.82;2.70;;;14.40;47.50;;;;;;4983833;28;20488;-62
2024/01/28 12:56:05;;;;;;;5.28;3.08;;;14.20;47.80;;;;;;4992371;28;20422;-65